sensor_id;sensor_type;location;lat;lon;timestamp;pressure;altitude;pressure_sealevel;temperature;humidity
76311;BME280;76681;59.304;18.294;2024-03-17T00:00:23;100882.50;;;0.22;72.16
76311;BME280;76681;59.304;18.294;2024-03-17T00:02:49;100882.53;;;0.23;72.49
76311;BME280;76681;59.304;18.294;2024-03-17T00:05:17;100880.78;;;0.21;72.70
76311;BME280;76681;59.304;18.294;2024-03-17T00:07:45;100894.56;;;0.23;72.96
76311;BME280;76681;59.304;18.294;2024-03-17T00:10:12;100894.56;;;0.23;72.42
76311;BME280;76681;59.304;18.294;2024-03-17T00:12:38;100903.09;;;0.22;72.18
76311;BME280;76681;59.304;18.294;2024-03-17T00:15:06;100918.47;;;0.19;72.10
76311;BME280;76681;59.304;18.294;2024-03-17T00:17:33;100906.38;;;0.16;71.82
76311;BME280;76681;59.304;18.294;2024-03-17T00:20:00;100913.19;;;0.12;71.79
76311;BME280;76681;59.304;18.294;2024-03-17T00:22:29;100914.88;;;0.12;71.32
76311;BME280;76681;59.304;18.294;2024-03-17T00:25:02;100912.28;;;0.10;71.70
76311;BME280;76681;59.304;18.294;2024-03-17T00:27:29;100939.72;;;0.10;71.91
76311;BME280;76681;59.304;18.294;2024-03-17T00:29:55;100925.97;;;0.09;72.04
76311;BME280;76681;59.304;18.294;2024-03-17T00:32:22;100928.47;;;0.06;71.94
76311;BME280;76681;59.304;18.294;2024-03-17T00:34:49;100927.56;;;0.04;71.65
76311;BME280;76681;59.304;18.294;2024-03-17T00:37:16;100947.28;;;0.04;70.78
76311;BME280;76681;59.304;18.294;2024-03-17T00:39:43;100965.25;;;0.02;71.41
76311;BME280;76681;59.304;18.294;2024-03-17T00:42:11;100942.88;;;-0.02;70.64
76311;BME280;76681;59.304;18.294;2024-03-17T00:44:37;100972.81;;;-0.04;70.99
76311;BME280;76681;59.304;18.294;2024-03-17T00:47:04;100957.38;;;-0.04;70.75
76311;BME280;76681;59.304;18.294;2024-03-17T00:49:30;100959.88;;;-0.07;70.22
76311;BME280;76681;59.304;18.294;2024-03-17T00:51:57;100965.03;;;-0.07;70.42
76311;BME280;76681;59.304;18.294;2024-03-17T00:54:23;100984.75;;;-0.07;70.63
76311;BME280;76681;59.304;18.294;2024-03-17T00:56:50;100969.25;;;-0.11;70.55
76311;BME280;76681;59.304;18.294;2024-03-17T00:59:18;100983.75;;;-0.13;70.20
76311;BME280;76681;59.304;18.294;2024-03-17T01:01:45;101018.88;;;-0.15;70.05
76311;BME280;76681;59.304;18.294;2024-03-17T01:04:12;100979.31;;;-0.20;70.42
76311;BME280;76681;59.304;18.294;2024-03-17T01:06:39;100993.88;;;-0.20;70.52
76311;BME280;76681;59.304;18.294;2024-03-17T01:09:06;101004.06;;;-0.23;69.93
76311;BME280;76681;59.304;18.294;2024-03-17T01:11:33;101026.34;;;-0.24;69.96
76311;BME280;76681;59.304;18.294;2024-03-17T01:13:59;101015.06;;;-0.29;69.61
76311;BME280;76681;59.304;18.294;2024-03-17T01:16:28;101021.03;;;-0.31;69.46
76311;BME280;76681;59.304;18.294;2024-03-17T01:18:53;101026.94;;;-0.34;69.54
76311;BME280;76681;59.304;18.294;2024-03-17T01:21:21;101025.16;;;-0.37;69.23
76311;BME280;76681;59.304;18.294;2024-03-17T01:23:48;101027.66;;;-0.40;68.34
76311;BME280;76681;59.304;18.294;2024-03-17T01:26:15;101026.75;;;-0.42;69.03
76311;BME280;76681;59.304;18.294;2024-03-17T01:28:41;101065.31;;;-0.42;69.19
76311;BME280;76681;59.304;18.294;2024-03-17T01:31:08;101036.16;;;-0.42;69.12
76311;BME280;76681;59.304;18.294;2024-03-17T01:33:36;101037.81;;;-0.44;68.66
76311;BME280;76681;59.304;18.294;2024-03-17T01:36:03;101060.03;;;-0.46;68.89
76311;BME280;76681;59.304;18.294;2024-03-17T01:38:29;101069.44;;;-0.47;68.64
76311;BME280;76681;59.304;18.294;2024-03-17T01:40:56;101059.13;;;-0.48;69.15
76311;BME280;76681;59.304;18.294;2024-03-17T01:43:23;101067.72;;;-0.48;68.71
76311;BME280;76681;59.304;18.294;2024-03-17T01:45:50;101046.22;;;-0.50;68.33
76311;BME280;76681;59.304;18.294;2024-03-17T01:48:16;101073.56;;;-0.53;68.36
76311;BME280;76681;59.304;18.294;2024-03-17T01:50:48;101067.56;;;-0.54;68.33
76311;BME280;76681;59.304;18.294;2024-03-17T01:53:15;101075.19;;;-0.57;68.19
76311;BME280;76681;59.304;18.294;2024-03-17T01:55:44;101084.47;;;-0.61;67.52
76311;BME280;76681;59.304;18.294;2024-03-17T01:58:12;101117.88;;;-0.62;67.42
76311;BME280;76681;59.304;18.294;2024-03-17T02:00:40;101125.50;;;-0.65;66.88
76311;BME280;76681;59.304;18.294;2024-03-17T02:03:06;101099.66;;;-0.70;66.09
76311;BME280;76681;59.304;18.294;2024-03-17T02:05:34;101093.66;;;-0.70;66.76
76311;BME280;76681;59.304;18.294;2024-03-17T02:08:02;101120.97;;;-0.72;65.27
76311;BME280;76681;59.304;18.294;2024-03-17T02:10:30;101110.63;;;-0.75;65.73
76311;BME280;76681;59.304;18.294;2024-03-17T02:12:56;101129.44;;;-0.76;66.36
76311;BME280;76681;59.304;18.294;2024-03-17T02:15:23;101126.03;;;-0.75;66.50
76311;BME280;76681;59.304;18.294;2024-03-17T02:17:49;101129.44;;;-0.76;66.24
76311;BME280;76681;59.304;18.294;2024-03-17T02:20:16;101132.88;;;-0.76;66.42
76311;BME280;76681;59.304;18.294;2024-03-17T02:22:44;101141.38;;;-0.79;66.60
76311;BME280;76681;59.304;18.294;2024-03-17T02:25:11;101148.22;;;-0.78;66.66
76311;BME280;76681;59.304;18.294;2024-03-17T02:27:38;101152.50;;;-0.78;67.00
76311;BME280;76681;59.304;18.294;2024-03-17T02:30:06;101144.84;;;-0.76;67.03
76311;BME280;76681;59.304;18.294;2024-03-17T02:32:34;101160.28;;;-0.76;67.35
76311;BME280;76681;59.304;18.294;2024-03-17T02:35:02;101151.66;;;-0.79;67.86
76311;BME280;76681;59.304;18.294;2024-03-17T02:37:28;101146.56;;;-0.77;67.92
76311;BME280;76681;59.304;18.294;2024-03-17T02:39:56;101164.50;;;-0.79;66.60
76311;BME280;76681;59.304;18.294;2024-03-17T02:42:22;101194.38;;;-0.81;67.33
76311;BME280;76681;59.304;18.294;2024-03-17T02:44:50;101177.25;;;-0.82;66.64
76311;BME280;76681;59.304;18.294;2024-03-17T02:47:17;101178.88;;;-0.84;67.27
76311;BME280;76681;59.304;18.294;2024-03-17T02:49:44;101185.78;;;-0.83;66.87
76311;BME280;76681;59.304;18.294;2024-03-17T02:52:15;101184.03;;;-0.84;66.79
76311;BME280;76681;59.304;18.294;2024-03-17T02:54:42;101202.88;;;-0.83;67.05
76311;BME280;76681;59.304;18.294;2024-03-17T02:57:10;101192.56;;;-0.85;67.18
76311;BME280;76681;59.304;18.294;2024-03-17T02:59:38;101214.84;;;-0.84;67.24
76311;BME280;76681;59.304;18.294;2024-03-17T03:02:05;101215.69;;;-0.85;67.37
76311;BME280;76681;59.304;18.294;2024-03-17T03:04:32;101208.69;;;-0.89;67.81
76311;BME280;76681;59.304;18.294;2024-03-17T03:06:59;101208.81;;;-0.86;67.63
76311;BME280;76681;59.304;18.294;2024-03-17T03:09:26;101211.31;;;-0.87;68.28
76311;BME280;76681;59.304;18.294;2024-03-17T03:11:57;101214.84;;;-0.84;68.43
76311;BME280;76681;59.304;18.294;2024-03-17T03:14:26;101226.88;;;-0.83;67.86
76311;BME280;76681;59.304;18.294;2024-03-17T03:16:53;101220.91;;;-0.82;68.42
76311;BME280;76681;59.304;18.294;2024-03-17T03:19:20;101234.63;;;-0.81;68.42
76311;BME280;76681;59.304;18.294;2024-03-17T03:21:47;101237.19;;;-0.81;68.60
76311;BME280;76681;59.304;18.294;2024-03-17T03:24:14;101233.75;;;-0.82;68.25
76311;BME280;76681;59.304;18.294;2024-03-17T03:26:42;101251.69;;;-0.83;68.67
76311;BME280;76681;59.304;18.294;2024-03-17T03:29:10;101253.38;;;-0.84;68.76
76311;BME280;76681;59.304;18.294;2024-03-17T03:31:41;101270.50;;;-0.84;68.11
76311;BME280;76681;59.304;18.294;2024-03-17T03:34:08;101255.16;;;-0.83;68.60
76311;BME280;76681;59.304;18.294;2024-03-17T03:36:35;101261.97;;;-0.83;68.43
76311;BME280;76681;59.304;18.294;2024-03-17T03:39:02;101262.75;;;-0.86;68.50
76311;BME280;76681;59.304;18.294;2024-03-17T03:41:31;101296.16;;;-0.86;68.42
76311;BME280;76681;59.304;18.294;2024-03-17T03:43:58;101290.97;;;-0.87;68.11
76311;BME280;76681;59.304;18.294;2024-03-17T03:46:25;101287.47;;;-0.89;67.34
76311;BME280;76681;59.304;18.294;2024-03-17T03:48:54;101292.50;;;-0.92;67.59
76311;BME280;76681;59.304;18.294;2024-03-17T03:51:21;101328.44;;;-0.94;67.03
76311;BME280;76681;59.304;18.294;2024-03-17T03:53:50;101344.53;;;-0.98;65.69
76311;BME280;76681;59.304;18.294;2024-03-17T03:56:17;101318.75;;;-1.01;66.76
76311;BME280;76681;59.304;18.294;2024-03-17T03:58:46;101334.13;;;-1.03;66.04
76311;BME280;76681;59.304;18.294;2024-03-17T04:01:13;101337.56;;;-1.02;66.58
76311;BME280;76681;59.304;18.294;2024-03-17T04:03:47;101351.19;;;-1.05;66.77
76311;BME280;76681;59.304;18.294;2024-03-17T04:06:15;101358.88;;;-1.05;66.79
76311;BME280;76681;59.304;18.294;2024-03-17T04:08:42;101360.59;;;-1.05;66.80
76311;BME280;76681;59.304;18.294;2024-03-17T04:11:09;101355.34;;;-1.08;66.75
76311;BME280;76681;59.304;18.294;2024-03-17T04:13:36;101362.28;;;-1.06;67.43
76311;BME280;76681;59.304;18.294;2024-03-17T04:16:04;101368.22;;;-1.07;67.95
76311;BME280;76681;59.304;18.294;2024-03-17T04:18:32;101355.34;;;-1.08;67.79
76311;BME280;76681;59.304;18.294;2024-03-17T04:21:01;101379.31;;;-1.08;67.58
76311;BME280;76681;59.304;18.294;2024-03-17T04:23:31;101363.03;;;-1.08;67.88
76311;BME280;76681;59.304;18.294;2024-03-17T04:25:59;101385.31;;;-1.07;68.08
76311;BME280;76681;59.304;18.294;2024-03-17T04:28:26;101371.56;;;-1.09;67.65
76311;BME280;76681;59.304;18.294;2024-03-17T04:30:52;101391.19;;;-1.11;68.04
76311;BME280;76681;59.304;18.294;2024-03-17T04:33:19;101392.00;;;-1.12;67.78
76311;BME280;76681;59.304;18.294;2024-03-17T04:35:46;101397.03;;;-1.15;67.61
76311;BME280;76681;59.304;18.294;2024-03-17T04:38:13;101404.69;;;-1.17;67.92
76311;BME280;76681;59.304;18.294;2024-03-17T04:40:43;101409.75;;;-1.18;68.10
76311;BME280;76681;59.304;18.294;2024-03-17T04:43:11;101419.09;;;-1.20;68.08
76311;BME280;76681;59.304;18.294;2024-03-17T04:45:38;101423.31;;;-1.23;68.31
76311;BME280;76681;59.304;18.294;2024-03-17T04:48:05;101424.13;;;-1.24;68.52
76311;BME280;76681;59.304;18.294;2024-03-17T04:50:33;101444.63;;;-1.25;68.59
76311;BME280;76681;59.304;18.294;2024-03-17T04:53:00;101435.25;;;-1.23;69.34
76311;BME280;76681;59.304;18.294;2024-03-17T04:55:27;101450.66;;;-1.23;69.16
76311;BME280;76681;59.304;18.294;2024-03-17T04:57:55;101440.47;;;-1.21;69.04
76311;BME280;76681;59.304;18.294;2024-03-17T05:00:22;101457.56;;;-1.22;69.29
76311;BME280;76681;59.304;18.294;2024-03-17T05:02:49;101459.25;;;-1.23;69.71
76311;BME280;76681;59.304;18.294;2024-03-17T05:05:17;101463.50;;;-1.23;69.39
76311;BME280;76681;59.304;18.294;2024-03-17T05:07:44;101471.19;;;-1.23;69.59
76311;BME280;76681;59.304;18.294;2024-03-17T05:10:11;101466.13;;;-1.21;70.18
76311;BME280;76681;59.304;18.294;2024-03-17T05:12:38;101487.53;;;-1.21;69.83
76311;BME280;76681;59.304;18.294;2024-03-17T05:15:07;101484.03;;;-1.23;69.81
76311;BME280;76681;59.304;18.294;2024-03-17T05:17:36;101484.97;;;-1.21;69.73
76311;BME280;76681;59.304;18.294;2024-03-17T05:20:03;101489.25;;;-1.21;69.72
76311;BME280;76681;59.304;18.294;2024-03-17T05:22:33;101492.69;;;-1.21;69.70
76311;BME280;76681;59.304;18.294;2024-03-17T05:25:00;101492.63;;;-1.23;69.24
76311;BME280;76681;59.304;18.294;2024-03-17T05:27:28;101501.25;;;-1.20;69.43
76311;BME280;76681;59.304;18.294;2024-03-17T05:29:55;101505.50;;;-1.21;69.56
76311;BME280;76681;59.304;18.294;2024-03-17T05:32:23;101525.19;;;-1.21;69.78
76311;BME280;76681;59.304;18.294;2024-03-17T05:34:52;101538.84;;;-1.23;67.91
76311;BME280;76681;59.304;18.294;2024-03-17T05:37:18;101529.38;;;-1.24;68.46
76311;BME280;76681;59.304;18.294;2024-03-17T05:39:46;101563.59;;;-1.25;68.28
76311;BME280;76681;59.304;18.294;2024-03-17T05:42:13;101563.59;;;-1.25;68.14
76311;BME280;76681;59.304;18.294;2024-03-17T05:44:40;101561.03;;;-1.25;66.65
76311;BME280;76681;59.304;18.294;2024-03-17T05:47:17;101559.28;;;-1.26;66.68
76311;BME280;76681;59.304;18.294;2024-03-17T05:49:46;101578.91;;;-1.26;66.64
76311;BME280;76681;59.304;18.294;2024-03-17T05:52:13;101583.94;;;-1.29;66.39
76311;BME280;76681;59.304;18.294;2024-03-17T05:54:40;101577.06;;;-1.30;66.99
76311;BME280;76681;59.304;18.294;2024-03-17T05:57:07;101588.19;;;-1.30;67.08
76311;BME280;76681;59.304;18.294;2024-03-17T05:59:37;101583.06;;;-1.30;67.29
76311;BME280;76681;59.304;18.294;2024-03-17T06:02:04;101590.03;;;-1.27;67.24
76311;BME280;76681;59.304;18.294;2024-03-17T06:04:31;101642.31;;;-1.25;66.99
76311;BME280;76681;59.304;18.294;2024-03-17T06:06:59;101590.09;;;-1.26;66.37
76311;BME280;76681;59.304;18.294;2024-03-17T06:09:26;101614.94;;;-1.25;65.12
76311;BME280;76681;59.304;18.294;2024-03-17T06:11:53;101608.84;;;-1.27;64.82
76311;BME280;76681;59.304;18.294;2024-03-17T06:14:20;101613.13;;;-1.27;65.54
76311;BME280;76681;59.304;18.294;2024-03-17T06:16:47;101633.75;;;-1.26;65.38
76311;BME280;76681;59.304;18.294;2024-03-17T06:19:14;101649.94;;;-1.27;64.96
76311;BME280;76681;59.304;18.294;2024-03-17T06:21:41;101631.16;;;-1.26;64.31
76311;BME280;76681;59.304;18.294;2024-03-17T06:24:10;101645.75;;;-1.25;64.78
76311;BME280;76681;59.304;18.294;2024-03-17T06:26:37;101659.53;;;-1.23;64.98
76311;BME280;76681;59.304;18.294;2024-03-17T06:29:04;101669.81;;;-1.23;64.87
76311;BME280;76681;59.304;18.294;2024-03-17T06:31:31;101669.03;;;-1.20;65.33
76311;BME280;76681;59.304;18.294;2024-03-17T06:33:58;101669.97;;;-1.18;65.48
76311;BME280;76681;59.304;18.294;2024-03-17T06:36:25;101660.56;;;-1.17;64.95
76311;BME280;76681;59.304;18.294;2024-03-17T06:38:52;101675.09;;;-1.18;63.99
76311;BME280;76681;59.304;18.294;2024-03-17T06:41:20;101682.06;;;-1.15;64.34
76311;BME280;76681;59.304;18.294;2024-03-17T06:43:47;101706.03;;;-1.15;64.86
76311;BME280;76681;59.304;18.294;2024-03-17T06:46:15;101697.41;;;-1.17;64.94
76311;BME280;76681;59.304;18.294;2024-03-17T06:48:42;101735.97;;;-1.15;64.80
76311;BME280;76681;59.304;18.294;2024-03-17T06:51:08;101710.41;;;-1.12;64.20
76311;BME280;76681;59.304;18.294;2024-03-17T06:53:35;101715.56;;;-1.12;64.27
76311;BME280;76681;59.304;18.294;2024-03-17T06:56:03;101718.19;;;-1.11;64.29
76311;BME280;76681;59.304;18.294;2024-03-17T06:58:31;101738.00;;;-1.08;64.63
76311;BME280;76681;59.304;18.294;2024-03-17T07:01:00;101745.75;;;-1.07;64.82
76311;BME280;76681;59.304;18.294;2024-03-17T07:03:29;101749.25;;;-1.05;63.82
76311;BME280;76681;59.304;18.294;2024-03-17T07:05:57;101748.44;;;-1.04;62.26
76311;BME280;76681;59.304;18.294;2024-03-17T07:08:27;101751.75;;;-1.06;63.04
76311;BME280;76681;59.304;18.294;2024-03-17T07:10:56;101745.06;;;-1.03;63.05
76311;BME280;76681;59.304;18.294;2024-03-17T07:13:22;101751.13;;;-1.01;63.31
76311;BME280;76681;59.304;18.294;2024-03-17T07:15:50;101755.50;;;-0.98;63.80
76311;BME280;76681;59.304;18.294;2024-03-17T07:18:17;101752.16;;;-0.97;63.20
76311;BME280;76681;59.304;18.294;2024-03-17T07:20:44;101759.97;;;-0.94;62.97
76311;BME280;76681;59.304;18.294;2024-03-17T07:23:13;101769.44;;;-0.93;63.41
76311;BME280;76681;59.304;18.294;2024-03-17T07:25:40;101768.56;;;-0.93;62.76
76311;BME280;76681;59.304;18.294;2024-03-17T07:28:07;101770.41;;;-0.89;62.29
76311;BME280;76681;59.304;18.294;2024-03-17T07:30:34;101767.06;;;-0.88;61.95
76311;BME280;76681;59.304;18.294;2024-03-17T07:33:03;101781.56;;;-0.89;61.60
76311;BME280;76681;59.304;18.294;2024-03-17T07:35:30;101762.91;;;-0.85;62.44
76311;BME280;76681;59.304;18.294;2024-03-17T07:37:57;101797.25;;;-0.83;61.49
76311;BME280;76681;59.304;18.294;2024-03-17T07:40:24;101797.38;;;-0.80;62.06
76311;BME280;76681;59.304;18.294;2024-03-17T07:42:51;101817.19;;;-0.77;62.01
76311;BME280;76681;59.304;18.294;2024-03-17T07:45:19;101809.59;;;-0.74;62.20
76311;BME280;76681;59.304;18.294;2024-03-17T07:47:46;101808.97;;;-0.68;62.68
76311;BME280;76681;59.304;18.294;2024-03-17T07:50:14;101819.41;;;-0.64;62.17
76311;BME280;76681;59.304;18.294;2024-03-17T07:52:41;101830.72;;;-0.60;61.78
76311;BME280;76681;59.304;18.294;2024-03-17T07:55:08;101832.63;;;-0.55;61.91
76311;BME280;76681;59.304;18.294;2024-03-17T07:57:35;101866.09;;;-0.53;61.52
76311;BME280;76681;59.304;18.294;2024-03-17T08:00:03;101847.47;;;-0.47;60.27
76311;BME280;76681;59.304;18.294;2024-03-17T08:02:31;101860.53;;;-0.43;60.58
76311;BME280;76681;59.304;18.294;2024-03-17T08:04:58;101851.28;;;-0.38;60.01
76311;BME280;76681;59.304;18.294;2024-03-17T08:07:26;101855.00;;;-0.31;60.18
76311;BME280;76681;59.304;18.294;2024-03-17T08:09:53;101838.09;;;-0.24;60.10
76311;BME280;76681;59.304;18.294;2024-03-17T08:12:20;101870.88;;;-0.19;59.31
76311;BME280;76681;59.304;18.294;2024-03-17T08:14:48;101867.47;;;-0.18;57.40
76311;BME280;76681;59.304;18.294;2024-03-17T08:17:15;101867.56;;;-0.16;58.44
76311;BME280;76681;59.304;18.294;2024-03-17T08:19:42;101871.88;;;-0.15;58.27
76311;BME280;76681;59.304;18.294;2024-03-17T08:22:09;101881.38;;;-0.14;58.15
76311;BME280;76681;59.304;18.294;2024-03-17T08:24:38;101882.28;;;-0.12;58.40
76311;BME280;76681;59.304;18.294;2024-03-17T08:27:05;101890.91;;;-0.12;58.71
76311;BME280;76681;59.304;18.294;2024-03-17T08:29:32;101887.53;;;-0.09;58.13
76311;BME280;76681;59.304;18.294;2024-03-17T08:31:59;101886.78;;;-0.06;59.11
76311;BME280;76681;59.304;18.294;2024-03-17T08:34:26;101903.16;;;-0.04;58.63
76311;BME280;76681;59.304;18.294;2024-03-17T08:36:54;101907.44;;;-0.05;57.94
76311;BME280;76681;59.304;18.294;2024-03-17T08:39:22;101944.31;;;-0.04;57.98
76311;BME280;76681;59.304;18.294;2024-03-17T08:41:50;101933.22;;;-0.03;57.15
76311;BME280;76681;59.304;18.294;2024-03-17T08:44:17;101930.59;;;-0.05;56.27
76311;BME280;76681;59.304;18.294;2024-03-17T08:46:44;101932.06;;;-0.12;55.58
76311;BME280;76681;59.304;18.294;2024-03-17T08:49:11;101928.59;;;-0.12;56.32
76311;BME280;76681;59.304;18.294;2024-03-17T08:51:38;101932.09;;;-0.10;56.63
76311;BME280;76681;59.304;18.294;2024-03-17T08:54:05;101965.50;;;-0.12;56.11
76311;BME280;76681;59.304;18.294;2024-03-17T08:56:32;101967.13;;;-0.14;55.77
76311;BME280;76681;59.304;18.294;2024-03-17T08:59:02;101959.34;;;-0.15;55.99
76311;BME280;76681;59.304;18.294;2024-03-17T09:01:29;101961.91;;;-0.15;55.28
76311;BME280;76681;59.304;18.294;2024-03-17T09:03:57;101981.72;;;-0.13;56.09
76311;BME280;76681;59.304;18.294;2024-03-17T09:06:26;101968.94;;;-0.11;55.94
76311;BME280;76681;59.304;18.294;2024-03-17T09:08:55;101987.06;;;-0.08;55.81
76311;BME280;76681;59.304;18.294;2024-03-17T09:11:22;101988.06;;;-0.04;56.19
76311;BME280;76681;59.304;18.294;2024-03-17T09:13:51;101980.44;;;-0.03;55.94
76311;BME280;76681;59.304;18.294;2024-03-17T09:16:19;101989.19;;;0.02;55.76
76311;BME280;76681;59.304;18.294;2024-03-17T09:18:49;101994.47;;;0.05;54.51
76311;BME280;76681;59.304;18.294;2024-03-17T09:21:16;102015.09;;;0.07;54.58
76311;BME280;76681;59.304;18.294;2024-03-17T09:23:43;102004.88;;;0.08;54.01
76311;BME280;76681;59.304;18.294;2024-03-17T09:26:10;102023.69;;;0.07;53.90
76311;BME280;76681;59.304;18.294;2024-03-17T09:28:39;102017.75;;;0.08;52.38
76311;BME280;76681;59.304;18.294;2024-03-17T09:31:06;102030.53;;;0.07;51.72
76311;BME280;76681;59.304;18.294;2024-03-17T09:33:35;102032.63;;;0.16;51.81
76311;BME280;76681;59.304;18.294;2024-03-17T09:36:05;102045.41;;;0.35;50.81
76311;BME280;76681;59.304;18.294;2024-03-17T09:38:32;102039.63;;;0.41;52.32
76311;BME280;76681;59.304;18.294;2024-03-17T09:41:00;102048.22;;;0.41;51.93
76311;BME280;76681;59.304;18.294;2024-03-17T09:43:28;102066.47;;;0.47;52.24
76311;BME280;76681;59.304;18.294;2024-03-17T09:45:55;102051.25;;;0.53;52.55
76311;BME280;76681;59.304;18.294;2024-03-17T09:48:25;102071.09;;;0.56;51.74
76311;BME280;76681;59.304;18.294;2024-03-17T09:50:56;102080.53;;;0.55;51.94
76311;BME280;76681;59.304;18.294;2024-03-17T09:53:25;102070.13;;;0.52;52.17
76311;BME280;76681;59.304;18.294;2024-03-17T09:55:57;102076.97;;;0.52;53.09
76311;BME280;76681;59.304;18.294;2024-03-17T09:58:24;102084.63;;;0.50;52.38
76311;BME280;76681;59.304;18.294;2024-03-17T10:00:52;102061.31;;;0.47;52.08
76311;BME280;76681;59.304;18.294;2024-03-17T10:03:40;102090.59;;;0.49;52.19
76311;BME280;76681;59.304;18.294;2024-03-17T10:06:09;102083.69;;;0.48;52.86
76311;BME280;76681;59.304;18.294;2024-03-17T10:08:46;102106.91;;;0.50;52.17
76311;BME280;76681;59.304;18.294;2024-03-17T10:11:15;102084.63;;;0.50;51.32
76311;BME280;76681;59.304;18.294;2024-03-17T10:13:43;102100.97;;;0.51;50.45
76311;BME280;76681;59.304;18.294;2024-03-17T10:16:24;102128.47;;;0.52;51.38
76311;BME280;76681;59.304;18.294;2024-03-17T10:19:05;102126.75;;;0.52;50.76
76311;BME280;76681;59.304;18.294;2024-03-17T10:21:34;102136.13;;;0.50;50.67
76311;BME280;76681;59.304;18.294;2024-03-17T10:24:06;102144.66;;;0.49;50.77
76311;BME280;76681;59.304;18.294;2024-03-17T10:26:36;102151.53;;;0.49;50.22
76311;BME280;76681;59.304;18.294;2024-03-17T10:29:05;102155.81;;;0.48;48.73
76311;BME280;76681;59.304;18.294;2024-03-17T10:31:32;102156.56;;;0.46;48.84
76311;BME280;76681;59.304;18.294;2024-03-17T10:34:02;102146.13;;;0.43;47.59
76311;BME280;76681;59.304;18.294;2024-03-17T10:36:29;102161.38;;;0.38;47.94
76311;BME280;76681;59.304;18.294;2024-03-17T10:38:57;102169.94;;;0.37;48.18
76311;BME280;76681;59.304;18.294;2024-03-17T10:41:25;102166.44;;;0.37;47.49
76311;BME280;76681;59.304;18.294;2024-03-17T10:43:54;102162.06;;;0.34;47.89
76311;BME280;76681;59.304;18.294;2024-03-17T10:46:24;102179.28;;;0.35;48.98
76311;BME280;76681;59.304;18.294;2024-03-17T10:48:53;102181.91;;;0.37;48.94
76311;BME280;76681;59.304;18.294;2024-03-17T10:51:20;102181.97;;;0.38;49.88
76311;BME280;76681;59.304;18.294;2024-03-17T10:53:48;102198.38;;;0.40;49.68
76311;BME280;76681;59.304;18.294;2024-03-17T10:56:20;102206.16;;;0.42;48.79
76311;BME280;76681;59.304;18.294;2024-03-17T10:58:49;102190.78;;;0.43;48.79
76311;BME280;76681;59.304;18.294;2024-03-17T11:01:22;102203.78;;;0.46;49.66
76311;BME280;76681;59.304;18.294;2024-03-17T11:03:51;102193.47;;;0.46;48.52
76311;BME280;76681;59.304;18.294;2024-03-17T11:06:18;102207.03;;;0.42;48.50
76311;BME280;76681;59.304;18.294;2024-03-17T11:08:46;102204.53;;;0.44;48.71
76311;BME280;76681;59.304;18.294;2024-03-17T11:11:13;102213.94;;;0.43;48.54
76311;BME280;76681;59.304;18.294;2024-03-17T11:13:42;102205.97;;;0.37;48.69
76311;BME280;76681;59.304;18.294;2024-03-17T11:16:25;102213.94;;;0.43;48.46
76311;BME280;76681;59.304;18.294;2024-03-17T11:19:05;102216.44;;;0.42;47.59
76311;BME280;76681;59.304;18.294;2024-03-17T11:21:33;102211.25;;;0.40;48.64
76311;BME280;76681;59.304;18.294;2024-03-17T11:24:02;102228.41;;;0.40;48.38
76311;BME280;76681;59.304;18.294;2024-03-17T11:26:31;102237.78;;;0.39;48.30
76311;BME280;76681;59.304;18.294;2024-03-17T11:29:00;102228.31;;;0.38;46.71
76311;BME280;76681;59.304;18.294;2024-03-17T11:31:39;102239.44;;;0.37;45.30
76311;BME280;76681;59.304;18.294;2024-03-17T11:34:29;102241.06;;;0.35;45.62
76311;BME280;76681;59.304;18.294;2024-03-17T11:36:57;102237.53;;;0.33;46.96
76311;BME280;76681;59.304;18.294;2024-03-17T11:39:54;102248.78;;;0.35;48.06
76311;BME280;76681;59.304;18.294;2024-03-17T11:42:25;102242.81;;;0.36;48.14
76311;BME280;76681;59.304;18.294;2024-03-17T11:45:04;102250.63;;;0.38;47.44
76311;BME280;76681;59.304;18.294;2024-03-17T11:47:34;102260.78;;;0.34;48.57
76311;BME280;76681;59.304;18.294;2024-03-17T11:50:02;102264.44;;;0.40;48.46
76311;BME280;76681;59.304;18.294;2024-03-17T11:52:30;102273.03;;;0.40;48.27
76311;BME280;76681;59.304;18.294;2024-03-17T11:54:56;102270.47;;;0.40;48.11
76311;BME280;76681;59.304;18.294;2024-03-17T11:57:24;102286.78;;;0.41;47.24
76311;BME280;76681;59.304;18.294;2024-03-17T11:59:51;102278.97;;;0.39;46.72
76311;BME280;76681;59.304;18.294;2024-03-17T12:02:21;102294.44;;;0.39;47.05
76311;BME280;76681;59.304;18.294;2024-03-17T12:04:48;102285.91;;;0.40;47.24
76311;BME280;76681;59.304;18.294;2024-03-17T12:07:16;102300.53;;;0.41;48.05
76311;BME280;76681;59.304;18.294;2024-03-17T12:09:43;102306.56;;;0.42;47.10
76311;BME280;76681;59.304;18.294;2024-03-17T12:12:16;102292.19;;;0.47;44.87
76311;BME280;76681;59.304;18.294;2024-03-17T12:14:42;102312.81;;;0.47;44.50
76311;BME280;76681;59.304;18.294;2024-03-17T12:17:10;102315.31;;;0.45;44.33
76311;BME280;76681;59.304;18.294;2024-03-17T12:19:38;102309.22;;;0.43;45.01
76311;BME280;76681;59.304;18.294;2024-03-17T12:22:06;102316.84;;;0.42;45.01
76311;BME280;76681;59.304;18.294;2024-03-17T12:24:33;102321.97;;;0.40;45.46
76311;BME280;76681;59.304;18.294;2024-03-17T12:27:01;102310.63;;;0.37;45.93
76311;BME280;76681;59.304;18.294;2024-03-17T12:29:31;102327.13;;;0.40;46.04
76311;BME280;76681;59.304;18.294;2024-03-17T12:32:02;102315.03;;;0.39;46.66
76311;BME280;76681;59.304;18.294;2024-03-17T12:34:32;102334.63;;;0.35;46.97
76311;BME280;76681;59.304;18.294;2024-03-17T12:37:02;102317.59;;;0.39;46.60
76311;BME280;76681;59.304;18.294;2024-03-17T12:39:29;102331.31;;;0.38;46.89
76311;BME280;76681;59.304;18.294;2024-03-17T12:42:04;102334.75;;;0.39;47.33
76311;BME280;76681;59.304;18.294;2024-03-17T12:44:31;102364.69;;;0.37;46.83
76311;BME280;76681;59.304;18.294;2024-03-17T12:46:58;102340.66;;;0.36;46.11